• Join FlightAware (Why Join?)
  • Login
  • US Flag 
07:00AM EDT


 

Airport Tracker/Info


-or-


 

Live Flight TrackerFlight Track Log ✈ AAL832 ✈ 02-Sep-2013 ✈ KBWI - KDFW

Flight Track Log - Related Links

Times and Time Zones

All times are in EDT time to prevent confusion due to time zone crossing. See the AAL832 flight status page for this flight to view local times or setup timezone preferences in your user account.

Time Position Orientation Groundspeed Altitude Reporting Facility
EDT Latitude Longitude Course Direction KTS MPH feet Rate Location/Type
08:51AM 39.1833 -76.7000 211° Southwest 173 199 1,200  Level Potomac TRACON
08:52AM 39.1833 -76.7833 270° West 217 250 3,300 2,100 Climbing Potomac TRACON
08:53AM 39.2000 -76.8500 288° West 234 269 5,400 2,340 Climbing Potomac TRACON
08:54AM 39.2000 -77.0683 270° West  Level FlightAware Approximate
08:54AM 39.2167 -76.9333 284° West 252 290 7,800  Level Potomac TRACON
08:55AM 39.1630 -77.1825 211° Southwest  Level FlightAware Approximate
08:55AM 39.2167 -77.0333 270° West 256 295 10,000  Level Potomac TRACON
08:56AM 39.0704 -77.2545 211° Southwest  Level FlightAware Approximate
08:58AM 39.1272 -77.2372 241° Southwest 262 302 14,300  Level Washington Center
08:59AM 39.0944 -77.3542 250° West 300 345 15,500 1,560 Climbing Washington Center
09:00AM 39.0592 -77.4761 250° West 346 398 17,500 2,160 Climbing Washington Center
09:01AM 39.0192 -77.6194 250° West 386 444 19,900 1,980 Climbing Washington Center
09:02AM 38.9881 -77.7361 251° West 391 450 21,500 1,560 Climbing Washington Center
09:03AM 38.9458 -77.8844 250° West 391 450 23,000 1,440 Climbing Washington Center
09:04AM 38.9078 -78.0192 250° West 401 461 24,500 1,500 Climbing Washington Center
09:05AM 38.8675 -78.1539 249° West 401 461 26,000 1,320 Climbing Washington Center
09:06AM 38.8517 -78.3025 262° West 401 461 27,200 1,200 Climbing Washington Center
09:07AM 38.8503 -78.4492 269° West 406 467 28,500 1,380 Climbing Washington Center
09:08AM 38.8486 -78.5983 269° West 413 475 30,100 1,380 Climbing Washington Center
09:09AM 38.8472 -78.7422 269° West 413 475 31,300 960 Climbing Washington Center
09:10AM 38.8456 -78.8833 269° West 402 463 32,000 300 Climbing Washington Center
09:11AM 38.8436 -79.0219 269° West 397 457 32,000  Level Washington Center
09:12AM 38.8417 -79.1606 269° West 397 457 32,000  Level Washington Center
09:13AM 38.8231 -79.2981 260° West 397 457 32,000  Level Washington Center
09:14AM 38.7997 -79.4356 258° West 397 457 32,000  Level Washington Center
09:15AM 38.7792 -79.5622 258° West 402 463 32,000  Level Washington Center
09:16AM 38.7536 -79.6967 256° West 407 468 32,000  Level Washington Center
09:17AM 38.7256 -79.8467 257° West 407 468 32,000  Level Washington Center
09:18AM 38.6900 -80.0228 256° West 387 445 32,000  Level Indianapolis Center
09:19AM 38.6633 -80.1594 256° West 393 452 32,000  Level Indianapolis Center
09:20AM 38.6394 -80.2917 257° West 384 442 32,000  Level Indianapolis Center
09:21AM 38.6092 -80.4514 256° West 385 443 32,000  Level Indianapolis Center
09:22AM 38.5850 -80.5842 257° West 385 443 32,000  Level Indianapolis Center
09:23AM 38.5583 -80.7186 256° West 389 448 32,000  Level Indianapolis Center
09:24AM 38.5325 -80.8522 256° West 387 445 32,000  Level Indianapolis Center
09:25AM 38.5064 -80.9875 256° West 390 449 32,000  Level Indianapolis Center
09:26AM 38.4794 -81.1228 256° West 391 450 32,000  Level Indianapolis Center
09:27AM 38.4528 -81.2578 256° West 390 449 32,000  Level Indianapolis Center
09:28AM 38.4258 -81.3931 256° West 389 448 32,000  Level Indianapolis Center
09:29AM 38.3989 -81.5269 256° West 387 445 32,000  Level Indianapolis Center
09:30AM 38.3717 -81.6628 256° West 390 449 32,000  Level Indianapolis Center
09:31AM 38.3425 -81.7972 255° West 392 451 32,000  Level Indianapolis Center
09:32AM 38.3044 -81.9289 250° West 395 455 32,000  Level Indianapolis Center
09:34AM 38.2678 -82.0639 251° West 401 461 32,000  Level Indianapolis Center
09:35AM 38.2311 -82.1964 251° West 398 458 32,000  Level Indianapolis Center
09:36AM 38.1933 -82.3306 250° West 401 461 32,000  Level Indianapolis Center
09:37AM 38.1472 -82.4922 250° West 403 464 32,000  Level Indianapolis Center
09:38AM 38.1094 -82.6239 250° West 402 463 32,000  Level Indianapolis Center
09:39AM 38.0706 -82.7542 249° West 398 458 32,000  Level Indianapolis Center
09:40AM 38.0319 -82.8889 250° West 406 467 32,000  Level Indianapolis Center
09:41AM 37.9936 -83.0236 250° West 407 468 32,000  Level Indianapolis Center
09:42AM 37.9539 -83.1581 249° West 408 470 32,000  Level Indianapolis Center
09:43AM 37.9139 -83.2925 249° West 409 471 32,000  Level Indianapolis Center
09:44AM 37.8669 -83.4519 250° West 413 475 32,000  Level Indianapolis Center
09:45AM 37.8267 -83.5858 249° West 409 471 32,000  Level Indianapolis Center
09:46AM 37.7875 -83.7194 250° West 407 468 32,100 540 Climbing Indianapolis Center
09:47AM 37.7478 -83.8503 249° West 402 463 33,200 900 Climbing Indianapolis Center
09:48AM 37.7094 -83.9764 249° West 391 450 34,000 360 Climbing Indianapolis Center
09:49AM 37.6714 -84.1014 249° West 383 441 34,000  Level Indianapolis Center
09:50AM 37.6333 -84.2281 249° West 385 443 34,000  Level Indianapolis Center
09:51AM 37.5944 -84.3528 249° West 383 441 34,000  Level Indianapolis Center
09:52AM 37.5500 -84.4981 249° West 382 440 34,000  Level Indianapolis Center
09:53AM 37.5111 -84.6242 249° West 384 442 34,000  Level Indianapolis Center
09:54AM 37.4714 -84.7483 248° West 383 441 34,000  Level Indianapolis Center
09:55AM 37.4328 -84.8742 249° West 383 441 34,000  Level Indianapolis Center
09:56AM 37.3939 -84.9989 249° West 384 442 34,000  Level Indianapolis Center
09:57AM 37.3553 -85.1236 249° West 382 440 34,000  Level Indianapolis Center
09:58AM 37.3147 -85.2494 248° West 388 447 34,000  Level Indianapolis Center
09:59AM 37.2678 -85.3969 248° West 389 448 34,000  Level Indianapolis Center
10:00AM 37.2308 -85.5158 249° West 389 448 34,000  Level Indianapolis Center
10:01AM 37.1908 -85.6397 248° West 393 452 34,000  Level Indianapolis Center
10:02AM 37.1500 -85.7686 248° West 395 455 34,000  Level Indianapolis Center
10:03AM 37.0997 -85.9186 247° West 396 456 34,000  Level Indianapolis Center
10:04AM 37.0589 -86.0489 249° West 398 458 34,000  Level Indianapolis Center
10:05AM 37.0167 -86.1761 247° West 395 455 34,000  Level Indianapolis Center
10:06AM 36.9742 -86.3058 248° West 399 459 34,000  Level Indianapolis Center
10:07AM 36.9325 -86.4406 249° West 398 458 34,000  Level Memphis Center
10:08AM 36.9094 -86.5739 258° West 398 458 34,000  Level Memphis Center
10:09AM 36.8867 -86.7125 258° West 398 458 34,000  Level Memphis Center
10:10AM 36.8656 -86.8508 259° West 403 464 34,000  Level Memphis Center
10:11AM 36.8403 -86.9894 257° West 413 475 34,000  Level Memphis Center
10:12AM 36.8189 -87.1278 259° West 413 475 34,000  Level Memphis Center
10:13AM 36.7953 -87.2658 258° West 413 475 34,000  Level Memphis Center
10:14AM 36.7756 -87.3911 259° West 413 475 34,000  Level Memphis Center
10:15AM 36.7497 -87.5319 257° West 413 475 34,000  Level Memphis Center
10:16AM 36.7256 -87.6725 258° West 413 475 34,000  Level Memphis Center
10:17AM 36.7014 -87.8078 257° West 413 475 34,000  Level Memphis Center
10:18AM 36.6772 -87.9483 258° West 413 475 34,000  Level Memphis Center
10:19AM 36.6547 -88.0861 259° West 411 473 34,000  Level Memphis Center
10:20AM 36.6300 -88.2239 257° West 411 473 34,000  Level Memphis Center
10:21AM 36.6072 -88.3614 258° West 411 473 34,000  Level Memphis Center
10:22AM 36.5825 -88.5017 258° West 411 473 34,000  Level Memphis Center
10:23AM 36.5553 -88.6417 256° West 411 473 34,000  Level Memphis Center
10:24AM 36.5300 -88.7817 257° West 411 473 34,000  Level Memphis Center
10:25AM 36.5006 -88.9319 256° West 411 473 34,000  Level Memphis Center
10:26AM 36.4772 -89.0717 258° West 416 479 34,000  Level Memphis Center
10:27AM 36.4572 -89.1778 257° West 411 473 34,000  Level Memphis Center
10:28AM 36.4275 -89.3408 257° West 426 490 34,000  Level Memphis Center
10:29AM 36.4014 -89.4753 256° West 439 505 34,000  Level Memphis Center
10:30AM 36.3711 -89.6275 256° West 434 499 34,000  Level Memphis Center
10:31AM 36.3447 -89.7617 256° West 423 487 34,000  Level Memphis Center
10:32AM 36.3161 -89.9036 256° West 417 480 34,000  Level Memphis Center
10:33AM 36.2894 -90.0453 257° West 417 480 34,000  Level Memphis Center
10:34AM 36.2628 -90.1844 257° West 417 480 34,000  Level Memphis Center
10:35AM 36.2336 -90.3261 256° West 417 480 34,000  Level Memphis Center
10:36AM 36.2064 -90.4650 256° West 417 480 34,000  Level Memphis Center
10:37AM 36.1792 -90.6064 257° West 417 480 34,000  Level Memphis Center
10:38AM 36.1497 -90.7478 256° West 417 480 34,000  Level Memphis Center
10:39AM 36.1219 -90.8864 256° West 422 486 34,000  Level Memphis Center
10:40AM 36.0922 -91.0247 255° West 422 486 34,000  Level Memphis Center
10:41AM 36.0642 -91.1658 256° West 417 480 34,000  Level Memphis Center
10:42AM 36.0361 -91.3067 256° West 417 480 34,000  Level Memphis Center
10:43AM 36.0039 -91.4475 254° West 422 486 34,000  Level Memphis Center
10:44AM 35.9775 -91.5908 257° West 428 493 34,000  Level Memphis Center
10:45AM 35.9467 -91.7519 257° West 433 498 34,000  Level Memphis Center
10:46AM 35.9178 -91.8897 256° West 428 493 34,000  Level Memphis Center
10:47AM 35.8867 -92.0328 255° West 428 493 34,000  Level Memphis Center
10:48AM 35.8578 -92.1756 256° West 428 493 34,000  Level Memphis Center
10:49AM 35.8264 -92.3183 255° West 433 498 34,000  Level Memphis Center
10:50AM 35.7947 -92.4583 254° West 433 498 34,000  Level Memphis Center
10:51AM 35.7653 -92.6008 256° West 433 498 34,000  Level Memphis Center
10:52AM 35.7333 -92.7456 255° West 433 498 34,000  Level Memphis Center
10:53AM 35.7033 -92.8906 256° West 433 498 34,000  Level Memphis Center
10:54AM 35.6711 -93.0378 255° West 433 498 34,000  Level Memphis Center
10:55AM 35.6367 -93.1822 254° West 452 520 34,000  Level Memphis Center
10:56AM 35.6058 -93.3369 256° West 452 520 34,000  Level Memphis Center
10:57AM 35.5711 -93.4786 253° West 452 520 34,000  Level Memphis Center
10:58AM 35.5361 -93.6278 254° West 452 520 34,000  Level Memphis Center
10:59AM 35.5031 -93.7744 255° West 452 520 34,000  Level Memphis Center
11:00AM 35.4694 -93.9261 255° West 452 520 34,000  Level Memphis Center
11:01AM 35.4317 -94.0747 253° West 452 520 34,000  Level Memphis Center
11:03AM 35.3250 -94.3425 244° Southwest 434 499 34,000  Level Fort Worth Center
11:04AM 35.2253 -94.4503 221° Southwest 447 514 34,000  Level Fort Worth Center
11:05AM 35.1278 -94.5578 222° Southwest 466 536 34,000  Level Fort Worth Center
11:06AM 35.0300 -94.6625 221° Southwest 471 542 34,000  Level Fort Worth Center
11:07AM 34.9422 -94.7592 222° Southwest 471 542 34,000  Level Fort Worth Center
11:08AM 34.8403 -94.8711 222° Southwest 476 548 34,000 -120 Level Fort Worth Center
11:09AM 34.7444 -94.9750 222° Southwest 471 542 33,800 -600 Descending Fort Worth Center
11:10AM 34.6503 -95.0711 220° Southwest 466 536 32,800 -1,020 Descending Fort Worth Center
11:11AM 34.5561 -95.1719 221° Southwest 456 525 31,800 -1,020 Descending Fort Worth Center
11:12AM 34.4619 -95.2725 221° Southwest 456 525 30,800 -1,020 Descending Fort Worth Center
11:13AM 34.3694 -95.3681 220° Southwest 455 524 29,800 -1,020 Descending Fort Worth Center
11:14AM 34.2731 -95.4708 221° Southwest 455 524 28,800 -1,020 Descending Fort Worth Center
11:15AM 34.1744 -95.5733 221° Southwest 460 529 27,800 -1,020 Descending Fort Worth Center
11:16AM 34.0842 -95.6681 221° Southwest 451 519 26,800 -1,020 Descending Fort Worth Center
11:17AM 33.9914 -95.7628 220° Southwest 444 511 25,800 -1,020 Descending Fort Worth Center
11:18AM 33.9008 -95.8569 221° Southwest 439 505 24,800 -1,440 Descending Fort Worth Center
11:20AM 33.7236 -96.0450 221° Southwest 433 498 21,600 -1,680 Descending Fort Worth Center
11:21AM 33.6303 -96.1211 214° Southwest 415 478 19,800 -1,980 Descending Fort Worth Center
11:22AM 33.5308 -96.1900 210° Southwest 403 464 17,700 -1,800 Descending Fort Worth Center
11:23AM 33.4397 -96.2558 211° Southwest 398 458 16,300 -1,740 Descending Fort Worth Center
11:24AM 33.3717 -96.3439 227° Southwest 371 427 14,300 -1,860 Descending Fort Worth Center
11:25AM 33.3097 -96.4417 233° Southwest 371 427 12,600 -1,680 Descending Fort Worth Center
11:26AM 33.2583 -96.5367 237° Southwest 354 407 11,000 -900 Descending Fort Worth Center
11:27AM 33.2167 -96.6000 232° Southwest 345 397 11,100 60 Climbing Dallas / Fort Worth TRACON
11:28AM 33.1667 -96.6667 228° Southwest 312 359 11,100  Level Dallas / Fort Worth TRACON
11:29AM 33.1000 -96.7500 226° Southwest 313 360 11,100  Level Dallas / Fort Worth TRACON
11:30AM 33.0333 -96.8333 226° Southwest 314 361 11,100  Level Dallas / Fort Worth TRACON
11:31AM 32.9833 -96.8833 220° Southwest 272 313 11,100 -420 Level Dallas / Fort Worth TRACON
11:32AM 32.9000 -96.9000 190° South 255 293 10,300 -1,320 Descending Dallas / Fort Worth TRACON
11:33AM 32.8500 -96.9000 180° South 244 281 8,800 -2,040 Descending Dallas / Fort Worth TRACON
11:34AM 32.7833 -96.9000 180° South 234 269 6,900 -2,040 Descending Dallas / Fort Worth TRACON
11:35AM 32.7333 -96.9167 196° South 230 265 4,800 -1,920 Descending Dallas / Fort Worth TRACON
11:36AM 32.7167 -96.9833 253° West 228 262 3,100 -1,080 Descending Dallas / Fort Worth TRACON
11:37AM 32.7667 -97.0167 331° Northwest 187 215 2,700 -600 Descending Dallas / Fort Worth TRACON
11:38AM 32.8000 -97.0167 360° North 161 185 1,900 -720 Descending Dallas / Fort Worth TRACON
11:39AM 32.8500 -97.0167 360° North 132 152 1,300 -600 Descending Dallas / Fort Worth TRACON